sensor_id;sensor_type;location;lat;lon;timestamp;P1;durP1;ratioP1;P2;durP2;ratioP2
14688;SDS011;7432;48.728;9.154;2022-11-15T00:01:16;4.90;;;4.50;;
14688;SDS011;7432;48.728;9.154;2022-11-15T00:03:44;5.23;;;4.17;;
14688;SDS011;7432;48.728;9.154;2022-11-15T00:06:11;5.00;;;4.60;;
14688;SDS011;7432;48.728;9.154;2022-11-15T00:08:37;4.90;;;4.50;;
14688;SDS011;7432;48.728;9.154;2022-11-15T00:11:04;5.03;;;4.63;;
14688;SDS011;7432;48.728;9.154;2022-11-15T00:13:30;6.60;;;5.20;;
14688;SDS011;7432;48.728;9.154;2022-11-15T00:15:59;5.97;;;5.30;;
14688;SDS011;7432;48.728;9.154;2022-11-15T00:18:26;5.53;;;5.03;;
14688;SDS011;7432;48.728;9.154;2022-11-15T00:20:53;5.93;;;5.43;;
14688;SDS011;7432;48.728;9.154;2022-11-15T00:23:20;5.70;;;5.10;;
14688;SDS011;7432;48.728;9.154;2022-11-15T00:25:46;5.63;;;5.10;;
14688;SDS011;7432;48.728;9.154;2022-11-15T00:28:12;5.90;;;5.40;;
14688;SDS011;7432;48.728;9.154;2022-11-15T00:30:39;5.43;;;4.93;;
14688;SDS011;7432;48.728;9.154;2022-11-15T00:33:07;5.93;;;5.40;;
14688;SDS011;7432;48.728;9.154;2022-11-15T00:35:34;6.20;;;5.57;;
14688;SDS011;7432;48.728;9.154;2022-11-15T00:38:01;5.33;;;4.93;;
14688;SDS011;7432;48.728;9.154;2022-11-15T00:40:28;6.73;;;4.90;;
14688;SDS011;7432;48.728;9.154;2022-11-15T00:42:54;5.70;;;5.20;;
14688;SDS011;7432;48.728;9.154;2022-11-15T00:45:21;5.87;;;5.20;;
14688;SDS011;7432;48.728;9.154;2022-11-15T00:47:47;5.30;;;4.80;;
14688;SDS011;7432;48.728;9.154;2022-11-15T00:50:15;6.03;;;5.50;;
14688;SDS011;7432;48.728;9.154;2022-11-15T00:52:42;5.90;;;5.40;;
14688;SDS011;7432;48.728;9.154;2022-11-15T00:55:09;6.63;;;5.10;;
14688;SDS011;7432;48.728;9.154;2022-11-15T00:57:40;5.97;;;5.47;;
14688;SDS011;7432;48.728;9.154;2022-11-15T01:00:07;6.47;;;5.80;;
14688;SDS011;7432;48.728;9.154;2022-11-15T01:02:34;5.93;;;5.43;;
14688;SDS011;7432;48.728;9.154;2022-11-15T01:05:00;6.03;;;5.43;;
14688;SDS011;7432;48.728;9.154;2022-11-15T01:07:28;6.20;;;5.60;;
14688;SDS011;7432;48.728;9.154;2022-11-15T01:09:55;5.80;;;5.30;;
14688;SDS011;7432;48.728;9.154;2022-11-15T01:12:21;6.83;;;5.60;;
14688;SDS011;7432;48.728;9.154;2022-11-15T01:14:47;6.97;;;5.10;;
14688;SDS011;7432;48.728;9.154;2022-11-15T01:17:15;6.50;;;5.67;;
14688;SDS011;7432;48.728;9.154;2022-11-15T01:19:41;6.00;;;5.47;;
14688;SDS011;7432;48.728;9.154;2022-11-15T01:22:08;5.73;;;5.10;;
14688;SDS011;7432;48.728;9.154;2022-11-15T01:24:36;15.80;;;5.47;;
14688;SDS011;7432;48.728;9.154;2022-11-15T01:27:02;6.40;;;4.77;;
14688;SDS011;7432;48.728;9.154;2022-11-15T01:29:29;5.30;;;4.90;;
14688;SDS011;7432;48.728;9.154;2022-11-15T01:31:55;5.57;;;5.07;;
14688;SDS011;7432;48.728;9.154;2022-11-15T01:34:22;4.90;;;4.50;;
14688;SDS011;7432;48.728;9.154;2022-11-15T01:36:48;6.03;;;4.73;;
14688;SDS011;7432;48.728;9.154;2022-11-15T01:39:15;5.43;;;4.90;;
14688;SDS011;7432;48.728;9.154;2022-11-15T01:41:43;4.60;;;4.20;;
14688;SDS011;7432;48.728;9.154;2022-11-15T01:47:04;5.10;;;4.70;;
14688;SDS011;7432;48.728;9.154;2022-11-15T01:49:35;5.87;;;4.53;;
14688;SDS011;7432;48.728;9.154;2022-11-15T01:52:07;4.80;;;4.40;;
14688;SDS011;7432;48.728;9.154;2022-11-15T01:54:36;4.83;;;4.37;;
14688;SDS011;7432;48.728;9.154;2022-11-15T01:57:05;4.80;;;4.40;;
14688;SDS011;7432;48.728;9.154;2022-11-15T01:59:33;5.23;;;4.33;;
14688;SDS011;7432;48.728;9.154;2022-11-15T02:02:00;4.83;;;4.47;;
14688;SDS011;7432;48.728;9.154;2022-11-15T02:04:27;5.27;;;4.60;;
14688;SDS011;7432;48.728;9.154;2022-11-15T02:06:55;5.20;;;4.70;;
14688;SDS011;7432;48.728;9.154;2022-11-15T02:09:21;5.07;;;4.57;;
14688;SDS011;7432;48.728;9.154;2022-11-15T02:11:48;5.20;;;4.80;;
14688;SDS011;7432;48.728;9.154;2022-11-15T02:14:18;4.80;;;4.40;;
14688;SDS011;7432;48.728;9.154;2022-11-15T02:16:48;5.33;;;4.83;;
14688;SDS011;7432;48.728;9.154;2022-11-15T02:19:28;5.10;;;4.70;;
14688;SDS011;7432;48.728;9.154;2022-11-15T02:22:23;6.17;;;4.40;;
14688;SDS011;7432;48.728;9.154;2022-11-15T02:25:03;6.13;;;4.57;;
14688;SDS011;7432;48.728;9.154;2022-11-15T02:27:55;6.60;;;4.93;;
14688;SDS011;7432;48.728;9.154;2022-11-15T02:30:36;5.10;;;4.60;;
14688;SDS011;7432;48.728;9.154;2022-11-15T02:33:10;4.80;;;4.40;;
14688;SDS011;7432;48.728;9.154;2022-11-15T02:35:44;4.90;;;4.40;;
14688;SDS011;7432;48.728;9.154;2022-11-15T02:38:20;4.83;;;4.23;;
14688;SDS011;7432;48.728;9.154;2022-11-15T02:40:52;4.57;;;4.17;;
14688;SDS011;7432;48.728;9.154;2022-11-15T02:43:24;4.90;;;4.50;;
14688;SDS011;7432;48.728;9.154;2022-11-15T02:46:14;5.20;;;4.70;;
14688;SDS011;7432;48.728;9.154;2022-11-15T02:49:07;5.03;;;4.60;;
14688;SDS011;7432;48.728;9.154;2022-11-15T02:51:35;4.60;;;4.17;;
14688;SDS011;7432;48.728;9.154;2022-11-15T02:54:01;5.20;;;4.70;;
14688;SDS011;7432;48.728;9.154;2022-11-15T02:56:28;6.83;;;4.67;;
14688;SDS011;7432;48.728;9.154;2022-11-15T02:58:57;4.80;;;4.30;;
14688;SDS011;7432;48.728;9.154;2022-11-15T03:01:40;4.73;;;4.23;;
14688;SDS011;7432;48.728;9.154;2022-11-15T03:04:19;4.47;;;4.07;;
14688;SDS011;7432;48.728;9.154;2022-11-15T03:06:57;4.93;;;4.53;;
14688;SDS011;7432;48.728;9.154;2022-11-15T03:09:31;5.83;;;5.23;;
14688;SDS011;7432;48.728;9.154;2022-11-15T03:12:03;7.33;;;6.17;;
14688;SDS011;7432;48.728;9.154;2022-11-15T03:14:35;6.80;;;6.13;;
14688;SDS011;7432;48.728;9.154;2022-11-15T03:17:10;7.70;;;5.70;;
14688;SDS011;7432;48.728;9.154;2022-11-15T03:19:43;7.23;;;4.80;;
14688;SDS011;7432;48.728;9.154;2022-11-15T03:22:11;5.73;;;4.07;;
14688;SDS011;7432;48.728;9.154;2022-11-15T03:24:41;4.73;;;4.33;;
14688;SDS011;7432;48.728;9.154;2022-11-15T03:27:11;5.37;;;4.87;;
14688;SDS011;7432;48.728;9.154;2022-11-15T03:29:41;4.77;;;4.37;;
14688;SDS011;7432;48.728;9.154;2022-11-15T03:32:12;6.10;;;4.10;;
14688;SDS011;7432;48.728;9.154;2022-11-15T03:34:43;5.30;;;4.80;;
14688;SDS011;7432;48.728;9.154;2022-11-15T03:37:14;5.07;;;4.60;;
14688;SDS011;7432;48.728;9.154;2022-11-15T03:39:42;7.53;;;4.70;;
14688;SDS011;7432;48.728;9.154;2022-11-15T03:42:12;6.23;;;4.70;;
14688;SDS011;7432;48.728;9.154;2022-11-15T03:44:46;4.97;;;4.47;;
14688;SDS011;7432;48.728;9.154;2022-11-15T03:47:20;4.83;;;4.43;;
14688;SDS011;7432;48.728;9.154;2022-11-15T03:49:50;4.80;;;4.40;;
14688;SDS011;7432;48.728;9.154;2022-11-15T03:52:19;5.07;;;4.67;;
14688;SDS011;7432;48.728;9.154;2022-11-15T03:54:49;4.33;;;3.93;;
14688;SDS011;7432;48.728;9.154;2022-11-15T03:57:17;5.57;;;4.53;;
14688;SDS011;7432;48.728;9.154;2022-11-15T03:59:43;5.17;;;4.77;;
14688;SDS011;7432;48.728;9.154;2022-11-15T04:02:10;5.00;;;4.20;;
14688;SDS011;7432;48.728;9.154;2022-11-15T04:04:38;4.47;;;4.07;;
14688;SDS011;7432;48.728;9.154;2022-11-15T04:07:04;5.17;;;4.77;;
14688;SDS011;7432;48.728;9.154;2022-11-15T04:09:30;5.20;;;4.80;;
14688;SDS011;7432;48.728;9.154;2022-11-15T04:11:57;5.67;;;4.90;;
14688;SDS011;7432;48.728;9.154;2022-11-15T04:14:23;5.17;;;4.77;;
14688;SDS011;7432;48.728;9.154;2022-11-15T04:16:50;5.37;;;4.60;;
14688;SDS011;7432;48.728;9.154;2022-11-15T04:19:16;4.50;;;4.10;;
14688;SDS011;7432;48.728;9.154;2022-11-15T04:22:01;5.93;;;4.83;;
14688;SDS011;7432;48.728;9.154;2022-11-15T04:24:45;5.47;;;4.93;;
14688;SDS011;7432;48.728;9.154;2022-11-15T04:27:11;5.10;;;4.60;;
14688;SDS011;7432;48.728;9.154;2022-11-15T04:29:38;6.30;;;4.93;;
14688;SDS011;7432;48.728;9.154;2022-11-15T04:32:05;6.00;;;5.60;;
14688;SDS011;7432;48.728;9.154;2022-11-15T04:34:32;5.97;;;5.47;;
14688;SDS011;7432;48.728;9.154;2022-11-15T04:37:01;5.80;;;5.20;;
14688;SDS011;7432;48.728;9.154;2022-11-15T04:39:41;5.63;;;5.23;;
14688;SDS011;7432;48.728;9.154;2022-11-15T04:42:09;7.53;;;5.33;;
14688;SDS011;7432;48.728;9.154;2022-11-15T04:44:35;5.77;;;5.10;;
14688;SDS011;7432;48.728;9.154;2022-11-15T04:47:03;5.70;;;5.17;;
14688;SDS011;7432;48.728;9.154;2022-11-15T04:49:29;5.27;;;4.87;;
14688;SDS011;7432;48.728;9.154;2022-11-15T04:51:56;6.20;;;5.60;;
14688;SDS011;7432;48.728;9.154;2022-11-15T04:54:24;5.93;;;5.37;;
14688;SDS011;7432;48.728;9.154;2022-11-15T04:56:50;5.40;;;4.90;;
14688;SDS011;7432;48.728;9.154;2022-11-15T04:59:16;6.13;;;5.63;;
14688;SDS011;7432;48.728;9.154;2022-11-15T05:01:43;7.90;;;5.70;;
14688;SDS011;7432;48.728;9.154;2022-11-15T05:04:09;5.97;;;5.13;;
14688;SDS011;7432;48.728;9.154;2022-11-15T05:06:44;5.50;;;5.00;;
14688;SDS011;7432;48.728;9.154;2022-11-15T05:09:11;6.23;;;5.70;;
14688;SDS011;7432;48.728;9.154;2022-11-15T05:11:40;6.63;;;5.20;;
14688;SDS011;7432;48.728;9.154;2022-11-15T05:14:06;6.00;;;5.40;;
14688;SDS011;7432;48.728;9.154;2022-11-15T05:16:33;5.93;;;5.33;;
14688;SDS011;7432;48.728;9.154;2022-11-15T05:18:59;5.63;;;5.23;;
14688;SDS011;7432;48.728;9.154;2022-11-15T05:21:26;7.03;;;4.73;;
14688;SDS011;7432;48.728;9.154;2022-11-15T05:23:52;4.90;;;4.50;;
14688;SDS011;7432;48.728;9.154;2022-11-15T05:26:19;4.93;;;4.43;;
14688;SDS011;7432;48.728;9.154;2022-11-15T05:28:51;5.47;;;4.97;;
14688;SDS011;7432;48.728;9.154;2022-11-15T05:31:18;5.43;;;4.93;;
14688;SDS011;7432;48.728;9.154;2022-11-15T05:33:44;5.53;;;5.13;;
14688;SDS011;7432;48.728;9.154;2022-11-15T05:36:12;5.53;;;5.13;;
14688;SDS011;7432;48.728;9.154;2022-11-15T05:38:43;5.63;;;5.10;;
14688;SDS011;7432;48.728;9.154;2022-11-15T05:41:10;5.20;;;4.77;;
14688;SDS011;7432;48.728;9.154;2022-11-15T05:43:38;5.63;;;5.13;;
14688;SDS011;7432;48.728;9.154;2022-11-15T05:46:08;5.33;;;4.83;;
14688;SDS011;7432;48.728;9.154;2022-11-15T05:48:34;5.30;;;4.80;;
14688;SDS011;7432;48.728;9.154;2022-11-15T05:51:03;5.67;;;5.17;;
14688;SDS011;7432;48.728;9.154;2022-11-15T05:53:32;5.30;;;4.80;;
14688;SDS011;7432;48.728;9.154;2022-11-15T05:56:00;5.77;;;4.73;;
14688;SDS011;7432;48.728;9.154;2022-11-15T05:58:28;6.77;;;6.17;;
14688;SDS011;7432;48.728;9.154;2022-11-15T06:00:56;7.00;;;5.37;;
14688;SDS011;7432;48.728;9.154;2022-11-15T06:03:24;7.23;;;6.53;;
14688;SDS011;7432;48.728;9.154;2022-11-15T06:05:50;6.83;;;6.13;;
14688;SDS011;7432;48.728;9.154;2022-11-15T06:08:17;5.87;;;5.37;;
14688;SDS011;7432;48.728;9.154;2022-11-15T06:10:43;6.20;;;5.60;;
14688;SDS011;7432;48.728;9.154;2022-11-15T06:13:10;6.97;;;6.23;;
14688;SDS011;7432;48.728;9.154;2022-11-15T06:15:36;5.97;;;5.47;;
14688;SDS011;7432;48.728;9.154;2022-11-15T06:18:02;6.63;;;5.63;;
14688;SDS011;7432;48.728;9.154;2022-11-15T06:20:30;7.60;;;5.20;;
14688;SDS011;7432;48.728;9.154;2022-11-15T06:22:57;6.40;;;5.70;;
14688;SDS011;7432;48.728;9.154;2022-11-15T06:25:24;5.90;;;5.40;;
14688;SDS011;7432;48.728;9.154;2022-11-15T06:27:51;6.57;;;5.90;;
14688;SDS011;7432;48.728;9.154;2022-11-15T06:30:18;5.93;;;5.43;;
14688;SDS011;7432;48.728;9.154;2022-11-15T06:32:44;5.93;;;5.43;;
14688;SDS011;7432;48.728;9.154;2022-11-15T06:35:11;6.37;;;5.73;;
14688;SDS011;7432;48.728;9.154;2022-11-15T06:37:38;6.27;;;5.67;;
14688;SDS011;7432;48.728;9.154;2022-11-15T06:40:05;6.73;;;6.13;;
14688;SDS011;7432;48.728;9.154;2022-11-15T06:42:33;8.63;;;6.23;;
14688;SDS011;7432;48.728;9.154;2022-11-15T06:45:00;6.57;;;5.97;;
14688;SDS011;7432;48.728;9.154;2022-11-15T06:47:26;6.67;;;6.17;;
14688;SDS011;7432;48.728;9.154;2022-11-15T06:49:53;6.80;;;5.80;;
14688;SDS011;7432;48.728;9.154;2022-11-15T06:52:19;6.73;;;6.23;;
14688;SDS011;7432;48.728;9.154;2022-11-15T06:54:48;7.23;;;6.63;;
14688;SDS011;7432;48.728;9.154;2022-11-15T06:57:14;7.20;;;6.60;;
14688;SDS011;7432;48.728;9.154;2022-11-15T06:59:40;7.50;;;6.47;;
14688;SDS011;7432;48.728;9.154;2022-11-15T07:02:10;7.20;;;6.27;;
14688;SDS011;7432;48.728;9.154;2022-11-15T07:04:38;7.53;;;6.37;;
14688;SDS011;7432;48.728;9.154;2022-11-15T07:07:04;7.27;;;6.47;;
14688;SDS011;7432;48.728;9.154;2022-11-15T07:09:31;6.77;;;6.17;;
14688;SDS011;7432;48.728;9.154;2022-11-15T07:11:59;7.53;;;6.83;;
14688;SDS011;7432;48.728;9.154;2022-11-15T07:14:25;7.20;;;6.60;;
14688;SDS011;7432;48.728;9.154;2022-11-15T07:16:51;7.70;;;6.50;;
14688;SDS011;7432;48.728;9.154;2022-11-15T07:19:18;6.87;;;6.10;;
14688;SDS011;7432;48.728;9.154;2022-11-15T07:21:44;10.23;;;6.77;;
14688;SDS011;7432;48.728;9.154;2022-11-15T07:24:11;8.00;;;7.20;;
14688;SDS011;7432;48.728;9.154;2022-11-15T07:26:38;7.03;;;6.47;;
14688;SDS011;7432;48.728;9.154;2022-11-15T07:29:05;8.03;;;6.57;;
14688;SDS011;7432;48.728;9.154;2022-11-15T07:31:32;7.10;;;6.50;;
14688;SDS011;7432;48.728;9.154;2022-11-15T07:33:58;7.23;;;6.63;;
14688;SDS011;7432;48.728;9.154;2022-11-15T07:36:24;8.23;;;7.43;;
14688;SDS011;7432;48.728;9.154;2022-11-15T07:38:51;7.37;;;6.63;;
14688;SDS011;7432;48.728;9.154;2022-11-15T07:41:17;7.37;;;6.10;;
14688;SDS011;7432;48.728;9.154;2022-11-15T07:43:44;6.63;;;6.03;;
14688;SDS011;7432;48.728;9.154;2022-11-15T07:46:11;7.20;;;6.60;;
14688;SDS011;7432;48.728;9.154;2022-11-15T07:48:38;8.53;;;6.87;;
14688;SDS011;7432;48.728;9.154;2022-11-15T07:51:05;8.97;;;7.43;;
14688;SDS011;7432;48.728;9.154;2022-11-15T07:53:32;7.53;;;6.93;;
14688;SDS011;7432;48.728;9.154;2022-11-15T07:55:58;7.47;;;6.93;;
14688;SDS011;7432;48.728;9.154;2022-11-15T07:58:25;9.90;;;9.10;;
14688;SDS011;7432;48.728;9.154;2022-11-15T08:00:51;8.57;;;7.97;;
14688;SDS011;7432;48.728;9.154;2022-11-15T08:03:19;8.93;;;7.37;;
14688;SDS011;7432;48.728;9.154;2022-11-15T08:05:49;7.30;;;6.67;;
14688;SDS011;7432;48.728;9.154;2022-11-15T08:08:17;7.60;;;6.90;;
14688;SDS011;7432;48.728;9.154;2022-11-15T08:10:43;8.30;;;7.60;;
14688;SDS011;7432;48.728;9.154;2022-11-15T08:13:10;8.20;;;7.40;;
14688;SDS011;7432;48.728;9.154;2022-11-15T08:15:37;7.70;;;7.07;;
14688;SDS011;7432;48.728;9.154;2022-11-15T08:18:05;7.80;;;6.90;;
14688;SDS011;7432;48.728;9.154;2022-11-15T08:20:33;10.00;;;7.30;;
14688;SDS011;7432;48.728;9.154;2022-11-15T08:23:01;8.03;;;7.33;;
14688;SDS011;7432;48.728;9.154;2022-11-15T08:25:29;8.57;;;7.70;;
14688;SDS011;7432;48.728;9.154;2022-11-15T08:27:58;8.20;;;7.50;;
14688;SDS011;7432;48.728;9.154;2022-11-15T08:30:26;7.00;;;6.47;;
14688;SDS011;7432;48.728;9.154;2022-11-15T08:32:53;9.33;;;8.47;;
14688;SDS011;7432;48.728;9.154;2022-11-15T08:35:23;8.57;;;7.63;;
14688;SDS011;7432;48.728;9.154;2022-11-15T08:37:51;8.67;;;7.70;;
14688;SDS011;7432;48.728;9.154;2022-11-15T08:40:18;7.93;;;7.13;;
14688;SDS011;7432;48.728;9.154;2022-11-15T08:42:45;8.30;;;7.60;;
14688;SDS011;7432;48.728;9.154;2022-11-15T08:45:12;11.43;;;7.87;;
14688;SDS011;7432;48.728;9.154;2022-11-15T08:47:39;8.70;;;8.00;;
14688;SDS011;7432;48.728;9.154;2022-11-15T08:50:05;7.43;;;6.83;;
14688;SDS011;7432;48.728;9.154;2022-11-15T08:52:33;9.17;;;7.47;;
14688;SDS011;7432;48.728;9.154;2022-11-15T08:55:00;7.73;;;7.13;;
14688;SDS011;7432;48.728;9.154;2022-11-15T08:57:28;8.07;;;7.30;;
14688;SDS011;7432;48.728;9.154;2022-11-15T08:59:54;8.27;;;7.47;;
14688;SDS011;7432;48.728;9.154;2022-11-15T09:02:21;9.57;;;7.53;;
14688;SDS011;7432;48.728;9.154;2022-11-15T09:04:47;7.47;;;6.77;;
14688;SDS011;7432;48.728;9.154;2022-11-15T09:07:14;10.97;;;6.63;;
14688;SDS011;7432;48.728;9.154;2022-11-15T09:09:40;7.43;;;6.83;;
14688;SDS011;7432;48.728;9.154;2022-11-15T09:12:09;6.77;;;6.20;;
14688;SDS011;7432;48.728;9.154;2022-11-15T09:14:35;6.80;;;6.23;;
14688;SDS011;7432;48.728;9.154;2022-11-15T09:17:02;7.20;;;6.60;;
14688;SDS011;7432;48.728;9.154;2022-11-15T09:19:28;7.43;;;6.70;;
14688;SDS011;7432;48.728;9.154;2022-11-15T09:21:55;7.07;;;6.40;;
14688;SDS011;7432;48.728;9.154;2022-11-15T09:24:21;7.60;;;6.77;;
14688;SDS011;7432;48.728;9.154;2022-11-15T09:26:49;7.20;;;6.50;;
14688;SDS011;7432;48.728;9.154;2022-11-15T09:29:17;7.77;;;6.57;;
14688;SDS011;7432;48.728;9.154;2022-11-15T09:31:43;6.93;;;6.13;;
14688;SDS011;7432;48.728;9.154;2022-11-15T09:34:10;7.60;;;6.90;;
14688;SDS011;7432;48.728;9.154;2022-11-15T09:36:37;6.73;;;6.23;;
14688;SDS011;7432;48.728;9.154;2022-11-15T09:39:03;7.57;;;6.93;;
14688;SDS011;7432;48.728;9.154;2022-11-15T09:47:08;7.40;;;6.77;;
14688;SDS011;7432;48.728;9.154;2022-11-15T09:49:55;7.40;;;6.80;;
14688;SDS011;7432;48.728;9.154;2022-11-15T09:52:24;6.70;;;6.10;;
14688;SDS011;7432;48.728;9.154;2022-11-15T09:54:51;6.67;;;6.13;;
14688;SDS011;7432;48.728;9.154;2022-11-15T09:57:20;7.07;;;6.40;;
14688;SDS011;7432;48.728;9.154;2022-11-15T10:00:04;6.77;;;6.17;;
14688;SDS011;7432;48.728;9.154;2022-11-15T10:02:41;6.77;;;6.17;;
14688;SDS011;7432;48.728;9.154;2022-11-15T10:05:18;7.00;;;6.40;;
14688;SDS011;7432;48.728;9.154;2022-11-15T10:07:48;5.70;;;5.37;;
14688;SDS011;7432;48.728;9.154;2022-11-15T10:10:23;6.00;;;5.37;;
14688;SDS011;7432;48.728;9.154;2022-11-15T10:12:55;6.60;;;6.10;;
14688;SDS011;7432;48.728;9.154;2022-11-15T10:15:25;6.60;;;6.10;;
14688;SDS011;7432;48.728;9.154;2022-11-15T10:18:04;6.87;;;6.37;;
14688;SDS011;7432;48.728;9.154;2022-11-15T10:20:38;6.90;;;6.07;;
14688;SDS011;7432;48.728;9.154;2022-11-15T10:23:20;8.00;;;7.23;;
14688;SDS011;7432;48.728;9.154;2022-11-15T10:25:50;9.00;;;6.43;;
14688;SDS011;7432;48.728;9.154;2022-11-15T10:28:21;6.80;;;6.20;;
14688;SDS011;7432;48.728;9.154;2022-11-15T10:30:53;6.53;;;6.13;;
14688;SDS011;7432;48.728;9.154;2022-11-15T10:33:23;6.43;;;5.93;;
14688;SDS011;7432;48.728;9.154;2022-11-15T10:38:50;6.70;;;6.20;;
14688;SDS011;7432;48.728;9.154;2022-11-15T10:41:22;6.53;;;6.07;;
14688;SDS011;7432;48.728;9.154;2022-11-15T10:44:07;6.73;;;6.17;;
14688;SDS011;7432;48.728;9.154;2022-11-15T10:46:39;6.20;;;5.80;;
14688;SDS011;7432;48.728;9.154;2022-11-15T10:49:12;7.00;;;6.33;;
14688;SDS011;7432;48.728;9.154;2022-11-15T10:51:40;6.37;;;5.87;;
14688;SDS011;7432;48.728;9.154;2022-11-15T10:54:10;6.77;;;6.10;;
14688;SDS011;7432;48.728;9.154;2022-11-15T10:56:40;11.70;;;6.77;;
14688;SDS011;7432;48.728;9.154;2022-11-15T10:59:14;6.80;;;6.30;;
14688;SDS011;7432;48.728;9.154;2022-11-15T11:01:48;6.30;;;5.90;;
14688;SDS011;7432;48.728;9.154;2022-11-15T11:04:14;6.80;;;6.23;;
14688;SDS011;7432;48.728;9.154;2022-11-15T11:06:47;6.47;;;5.97;;
14688;SDS011;7432;48.728;9.154;2022-11-15T11:09:22;5.93;;;5.40;;
14688;SDS011;7432;48.728;9.154;2022-11-15T11:11:53;6.80;;;6.20;;
14688;SDS011;7432;48.728;9.154;2022-11-15T11:14:20;6.70;;;6.20;;
14688;SDS011;7432;48.728;9.154;2022-11-15T11:16:50;6.77;;;6.20;;
14688;SDS011;7432;48.728;9.154;2022-11-15T11:19:26;7.17;;;6.47;;
14688;SDS011;7432;48.728;9.154;2022-11-15T11:22:05;6.72;;;6.15;;
14688;SDS011;7432;48.728;9.154;2022-11-15T11:24:43;6.80;;;6.20;;
14688;SDS011;7432;48.728;9.154;2022-11-15T11:27:17;6.60;;;6.10;;
14688;SDS011;7432;48.728;9.154;2022-11-15T11:29:56;7.07;;;6.37;;
14688;SDS011;7432;48.728;9.154;2022-11-15T11:32:43;6.63;;;5.97;;
14688;SDS011;7432;48.728;9.154;2022-11-15T11:35:22;6.57;;;6.07;;
14688;SDS011;7432;48.728;9.154;2022-11-15T11:37:55;7.13;;;5.23;;
14688;SDS011;7432;48.728;9.154;2022-11-15T11:40:30;7.37;;;5.70;;
14688;SDS011;7432;48.728;9.154;2022-11-15T11:43:03;5.83;;;5.27;;
14688;SDS011;7432;48.728;9.154;2022-11-15T11:45:59;6.87;;;5.80;;
14688;SDS011;7432;48.728;9.154;2022-11-15T11:48:41;6.30;;;5.90;;
14688;SDS011;7432;48.728;9.154;2022-11-15T11:51:16;6.20;;;5.80;;
14688;SDS011;7432;48.728;9.154;2022-11-15T11:53:46;5.73;;;5.30;;
14688;SDS011;7432;48.728;9.154;2022-11-15T11:56:21;5.87;;;5.40;;
14688;SDS011;7432;48.728;9.154;2022-11-15T11:58:52;5.87;;;5.47;;
14688;SDS011;7432;48.728;9.154;2022-11-15T12:01:22;5.93;;;5.43;;
14688;SDS011;7432;48.728;9.154;2022-11-15T12:03:53;8.20;;;5.30;;
14688;SDS011;7432;48.728;9.154;2022-11-15T12:06:27;5.40;;;5.10;;
14688;SDS011;7432;48.728;9.154;2022-11-15T12:09:00;5.80;;;5.40;;
14688;SDS011;7432;48.728;9.154;2022-11-15T12:11:32;5.77;;;5.37;;
14688;SDS011;7432;48.728;9.154;2022-11-15T12:14:05;5.63;;;5.27;;
14688;SDS011;7432;48.728;9.154;2022-11-15T12:16:42;6.37;;;5.77;;
14688;SDS011;7432;48.728;9.154;2022-11-15T12:19:10;5.93;;;5.50;;
14688;SDS011;7432;48.728;9.154;2022-11-15T12:21:39;6.57;;;5.97;;
14688;SDS011;7432;48.728;9.154;2022-11-15T12:24:13;6.67;;;6.17;;
14688;SDS011;7432;48.728;9.154;2022-11-15T12:26:45;6.40;;;5.80;;
14688;SDS011;7432;48.728;9.154;2022-11-15T12:29:18;7.03;;;6.43;;
14688;SDS011;7432;48.728;9.154;2022-11-15T12:31:50;6.73;;;6.13;;
14688;SDS011;7432;48.728;9.154;2022-11-15T12:34:34;7.13;;;6.43;;
14688;SDS011;7432;48.728;9.154;2022-11-15T12:40:17;6.90;;;6.20;;
14688;SDS011;7432;48.728;9.154;2022-11-15T12:43:02;8.20;;;6.93;;
14688;SDS011;7432;48.728;9.154;2022-11-15T12:45:56;9.63;;;6.40;;
14688;SDS011;7432;48.728;9.154;2022-11-15T12:48:45;10.20;;;7.10;;
14688;SDS011;7432;48.728;9.154;2022-11-15T12:51:15;7.20;;;6.47;;
14688;SDS011;7432;48.728;9.154;2022-11-15T12:53:43;8.17;;;6.63;;
14688;SDS011;7432;48.728;9.154;2022-11-15T12:56:17;8.90;;;7.00;;
14688;SDS011;7432;48.728;9.154;2022-11-15T12:58:47;7.87;;;7.10;;
14688;SDS011;7432;48.728;9.154;2022-11-15T13:04:22;8.90;;;6.93;;
14688;SDS011;7432;48.728;9.154;2022-11-15T13:06:54;7.33;;;6.70;;
14688;SDS011;7432;48.728;9.154;2022-11-15T13:15:35;7.80;;;7.00;;
14688;SDS011;7432;48.728;9.154;2022-11-15T13:18:32;8.53;;;7.73;;
14688;SDS011;7432;48.728;9.154;2022-11-15T13:21:02;8.87;;;6.70;;
14688;SDS011;7432;48.728;9.154;2022-11-15T13:23:54;7.73;;;7.03;;
14688;SDS011;7432;48.728;9.154;2022-11-15T13:26:21;7.67;;;7.00;;
14688;SDS011;7432;48.728;9.154;2022-11-15T13:28:49;8.50;;;6.80;;
14688;SDS011;7432;48.728;9.154;2022-11-15T13:31:27;7.47;;;6.80;;
14688;SDS011;7432;48.728;9.154;2022-11-15T13:33:57;10.87;;;7.00;;
14688;SDS011;7432;48.728;9.154;2022-11-15T13:36:27;9.43;;;6.73;;
14688;SDS011;7432;48.728;9.154;2022-11-15T13:38:58;7.60;;;6.73;;
14688;SDS011;7432;48.728;9.154;2022-11-15T13:41:27;7.60;;;6.90;;
14688;SDS011;7432;48.728;9.154;2022-11-15T13:43:55;7.27;;;6.77;;
14688;SDS011;7432;48.728;9.154;2022-11-15T13:46:25;8.60;;;7.80;;
14688;SDS011;7432;48.728;9.154;2022-11-15T13:48:53;8.07;;;7.10;;
14688;SDS011;7432;48.728;9.154;2022-11-15T13:51:23;8.43;;;7.63;;
14688;SDS011;7432;48.728;9.154;2022-11-15T13:53:56;8.13;;;7.40;;
14688;SDS011;7432;48.728;9.154;2022-11-15T13:56:27;12.27;;;8.10;;
14688;SDS011;7432;48.728;9.154;2022-11-15T13:58:56;8.70;;;7.90;;
14688;SDS011;7432;48.728;9.154;2022-11-15T14:01:23;11.03;;;8.27;;
14688;SDS011;7432;48.728;9.154;2022-11-15T14:03:56;9.80;;;8.00;;
14688;SDS011;7432;48.728;9.154;2022-11-15T14:06:24;10.67;;;8.20;;
14688;SDS011;7432;48.728;9.154;2022-11-15T14:11:59;12.53;;;8.27;;
14688;SDS011;7432;48.728;9.154;2022-11-15T14:14:27;9.17;;;7.57;;
14688;SDS011;7432;48.728;9.154;2022-11-15T14:16:55;9.10;;;8.23;;
14688;SDS011;7432;48.728;9.154;2022-11-15T14:19:35;8.67;;;7.97;;
14688;SDS011;7432;48.728;9.154;2022-11-15T14:22:07;9.97;;;7.80;;
14688;SDS011;7432;48.728;9.154;2022-11-15T14:24:35;7.90;;;7.20;;
14688;SDS011;7432;48.728;9.154;2022-11-15T14:27:16;8.23;;;7.43;;
14688;SDS011;7432;48.728;9.154;2022-11-15T14:29:53;8.60;;;7.20;;
14688;SDS011;7432;48.728;9.154;2022-11-15T14:32:20;7.60;;;6.77;;
14688;SDS011;7432;48.728;9.154;2022-11-15T14:34:48;8.10;;;7.17;;
14688;SDS011;7432;48.728;9.154;2022-11-15T14:37:19;8.38;;;7.57;;
14688;SDS011;7432;48.728;9.154;2022-11-15T14:39:48;8.00;;;7.30;;
14688;SDS011;7432;48.728;9.154;2022-11-15T14:42:16;8.83;;;7.97;;
14688;SDS011;7432;48.728;9.154;2022-11-15T14:44:44;8.17;;;7.37;;
14688;SDS011;7432;48.728;9.154;2022-11-15T14:47:10;8.87;;;7.20;;
14688;SDS011;7432;48.728;9.154;2022-11-15T14:49:36;8.30;;;7.50;;
14688;SDS011;7432;48.728;9.154;2022-11-15T14:52:04;8.50;;;7.67;;
14688;SDS011;7432;48.728;9.154;2022-11-15T14:54:49;6.80;;;6.30;;
14688;SDS011;7432;48.728;9.154;2022-11-15T14:57:16;8.30;;;7.50;;
14688;SDS011;7432;48.728;9.154;2022-11-15T14:59:43;7.60;;;6.90;;
14688;SDS011;7432;48.728;9.154;2022-11-15T15:02:11;6.93;;;6.37;;
14688;SDS011;7432;48.728;9.154;2022-11-15T15:04:43;7.57;;;6.90;;
14688;SDS011;7432;48.728;9.154;2022-11-15T15:07:09;7.10;;;6.43;;
14688;SDS011;7432;48.728;9.154;2022-11-15T15:09:35;9.10;;;6.67;;
14688;SDS011;7432;48.728;9.154;2022-11-15T15:12:02;7.97;;;7.40;;
14688;SDS011;7432;48.728;9.154;2022-11-15T15:14:30;9.73;;;7.87;;
14688;SDS011;7432;48.728;9.154;2022-11-15T15:16:57;8.70;;;7.60;;
14688;SDS011;7432;48.728;9.154;2022-11-15T15:19:23;9.93;;;7.87;;
14688;SDS011;7432;48.728;9.154;2022-11-15T15:21:49;8.23;;;7.53;;
14688;SDS011;7432;48.728;9.154;2022-11-15T15:24:16;9.77;;;8.73;;
14688;SDS011;7432;48.728;9.154;2022-11-15T15:26:42;13.40;;;8.50;;
14688;SDS011;7432;48.728;9.154;2022-11-15T15:29:09;8.77;;;7.97;;
14688;SDS011;7432;48.728;9.154;2022-11-15T15:31:36;9.40;;;8.43;;
14688;SDS011;7432;48.728;9.154;2022-11-15T15:34:03;9.60;;;8.70;;
14688;SDS011;7432;48.728;9.154;2022-11-15T15:36:30;10.07;;;8.10;;
14688;SDS011;7432;48.728;9.154;2022-11-15T15:38:56;9.57;;;8.37;;
14688;SDS011;7432;48.728;9.154;2022-11-15T15:41:23;11.27;;;9.07;;
14688;SDS011;7432;48.728;9.154;2022-11-15T15:43:49;9.67;;;8.67;;